Time;durP1;ratioP1;P1;durP2;ratioP2;P2;SDS_P1;SDS_P2;PMS_P1;PMS_P2;Temp;Humidity;BMP_temperature;BMP_pressure;BME280_temperature;BME280_humidity;BME280_pressure;Samples;Min_cycle;Max_cycle;Signal;HPM_P1;HPM_P2
2023/05/09 00:02:15;;;;;;;2.63;1.15;;;20.60;1.00;;;;;;4912428;23;20107;-43
2023/05/09 00:04:42;;;;;;;2.80;1.33;;;20.60;1.00;;;;;;4839490;29;20125;-43
2023/05/09 00:07:09;;;;;;;5.30;1.65;;;20.60;1.00;;;;;;4837946;29;20555;-44
2023/05/09 00:09:36;;;;;;;2.53;1.20;;;20.50;1.00;;;;;;4842465;29;20487;-44
2023/05/09 00:12:03;;;;;;;5.10;1.10;;;20.50;1.00;;;;;;4843344;29;20041;-43
2023/05/09 00:14:32;;;;;;;4.22;1.45;;;20.50;1.00;;;;;;4843111;29;20438;-43
2023/05/09 00:16:59;;;;;;;2.20;1.05;;;20.50;1.00;;;;;;4842960;29;20042;-44
2023/05/09 00:19:26;;;;;;;2.97;1.58;;;20.50;1.00;;;;;;4838656;29;21141;-43
2023/05/09 00:21:53;;;;;;;2.67;1.33;;;20.50;1.00;;;;;;4843159;29;20050;-43
2023/05/09 00:24:20;;;;;;;2.50;1.20;;;20.50;1.00;;;;;;4842968;29;20506;-42
2023/05/09 00:26:46;;;;;;;2.35;1.70;;;20.50;1.00;;;;;;4842920;29;20045;-43
2023/05/09 00:29:13;;;;;;;3.85;1.52;;;20.50;1.00;;;;;;4843112;29;20094;-43
2023/05/09 00:31:40;;;;;;;5.32;2.15;;;20.50;1.00;;;;;;4843085;29;20127;-43
2023/05/09 00:34:06;;;;;;;2.42;1.50;;;20.50;1.00;;;;;;4841683;29;20056;-42
2023/05/09 00:36:33;;;;;;;2.72;1.50;;;20.50;1.00;;;;;;4837286;29;20529;-43
2023/05/09 00:39:00;;;;;;;3.47;2.35;;;20.50;1.00;;;;;;4842973;29;20038;-43
2023/05/09 00:41:27;;;;;;;1.85;1.48;;;20.50;1.00;;;;;;4842858;29;20050;-43
2023/05/09 00:43:54;;;;;;;6.30;1.58;;;20.50;1.00;;;;;;4842824;29;20048;-44
2023/05/09 00:46:21;;;;;;;3.10;1.60;;;20.50;1.00;;;;;;4841246;29;20084;-44
2023/05/09 00:48:48;;;;;;;1.90;1.38;;;20.40;1.00;;;;;;4842743;29;20046;-45
2023/05/09 00:51:15;;;;;;;2.45;1.55;;;20.50;1.00;;;;;;4826256;29;20049;-43
2023/05/09 00:53:43;;;;;;;3.42;1.48;;;20.50;1.00;;;;;;4840143;29;20530;-43
2023/05/09 00:56:11;;;;;;;2.88;1.35;;;20.50;1.00;;;;;;4840996;29;20549;-43
2023/05/09 00:58:38;;;;;;;4.25;1.67;;;20.50;1.00;;;;;;4842590;29;20046;-43
2023/05/09 01:01:05;;;;;;;3.75;1.00;;;20.40;1.00;;;;;;4841189;29;20135;-43
2023/05/09 01:03:32;;;;;;;3.85;1.65;;;20.40;1.00;;;;;;4840861;29;20414;-44
2023/05/09 01:06:31;;;;;;;3.45;1.83;;;20.40;1.00;;;;;;4840924;29;20057;-43
2023/05/09 01:09:06;;;;;;;3.28;1.90;;;20.40;1.00;;;;;;4809579;29;20122;-44
2023/05/09 01:11:54;;;;;;;4.93;2.42;;;20.40;1.00;;;;;;4840936;29;20065;-44
2023/05/09 01:15:03;;;;;;;3.05;1.50;;;20.40;1.00;;;;;;4842180;29;20071;-44
2023/05/09 01:17:45;;;;;;;4.88;2.10;;;20.40;1.00;;;;;;4842268;29;20477;-44
2023/05/09 01:20:15;;;;;;;5.60;1.88;;;20.40;1.00;;;;;;4841058;29;20542;-43
2023/05/09 01:22:47;;;;;;;3.47;2.00;;;20.40;1.00;;;;;;4841241;29;20060;-44
2023/05/09 01:25:33;;;;;;;3.50;1.90;;;20.40;1.00;;;;;;4840655;29;20084;-43
2023/05/09 01:28:25;;;;;;;4.93;1.80;;;20.40;1.00;;;;;;4840897;29;20133;-44
2023/05/09 01:30:53;;;;;;;4.70;1.52;;;20.40;1.00;;;;;;4840728;29;20057;-44
2023/05/09 01:33:23;;;;;;;6.25;2.35;;;20.30;1.00;;;;;;4841039;29;20091;-43
2023/05/09 01:35:56;;;;;;;2.90;1.42;;;20.40;1.00;;;;;;4840588;29;20056;-43
2023/05/09 01:38:24;;;;;;;4.05;1.63;;;20.40;1.00;;;;;;4833203;29;20078;-45
2023/05/09 01:40:54;;;;;;;3.22;1.55;;;20.30;1.00;;;;;;4840794;29;20046;-43
2023/05/09 01:43:24;;;;;;;4.70;2.50;;;20.40;1.00;;;;;;4840495;29;20049;-43
2023/05/09 01:45:52;;;;;;;3.85;2.17;;;20.40;1.00;;;;;;4841568;29;20556;-44
2023/05/09 01:48:20;;;;;;;4.97;1.92;;;20.30;1.00;;;;;;4841738;29;20128;-43
2023/05/09 01:50:48;;;;;;;4.07;1.80;;;20.40;1.00;;;;;;4840227;29;20132;-43
2023/05/09 01:53:16;;;;;;;3.35;1.67;;;20.30;1.00;;;;;;4841753;29;20037;-43
2023/05/09 01:55:44;;;;;;;5.70;2.65;;;20.30;1.00;;;;;;4841441;29;20059;-43
2023/05/09 01:58:12;;;;;;;4.25;2.25;;;20.30;1.00;;;;;;4840244;29;20053;-43
2023/05/09 02:00:39;;;;;;;4.50;1.60;;;20.30;1.00;;;;;;4841482;29;20084;-43
2023/05/09 02:03:07;;;;;;;5.30;2.13;;;20.30;1.00;;;;;;4923977;23;20077;-46
2023/05/09 02:05:36;;;;;;;2.65;1.85;;;20.30;1.00;;;;;;4794621;29;20126;-44
2023/05/09 02:08:03;;;;;;;4.18;1.85;;;20.30;1.00;;;;;;4818248;29;20420;-45
2023/05/09 02:10:32;;;;;;;3.33;2.40;;;20.30;1.00;;;;;;4804996;29;20046;-44
2023/05/09 02:12:59;;;;;;;3.03;1.83;;;20.30;1.00;;;;;;4797145;29;20108;-44
2023/05/09 02:15:28;;;;;;;6.70;2.25;;;20.30;1.00;;;;;;4803364;29;20500;-45
2023/05/09 02:17:54;;;;;;;5.25;2.08;;;20.30;1.00;;;;;;4803767;29;20249;-45
2023/05/09 02:20:21;;;;;;;8.93;1.95;;;20.30;1.00;;;;;;4816426;29;20043;-45
2023/05/09 02:22:49;;;;;;;4.57;2.15;;;20.30;1.00;;;;;;4804749;29;20054;-44
2023/05/09 02:25:17;;;;;;;4.30;2.58;;;20.30;1.00;;;;;;4803365;29;20131;-46
2023/05/09 02:27:45;;;;;;;5.97;2.90;;;20.30;1.00;;;;;;4818773;29;20085;-44
2023/05/09 02:30:22;;;;;;;6.35;2.38;;;20.30;1.00;;;;;;4804841;29;20542;-44
2023/05/09 02:32:52;;;;;;;4.47;2.53;;;20.20;1.00;;;;;;4804752;29;20126;-44
2023/05/09 02:35:20;;;;;;;6.15;2.50;;;20.20;1.00;;;;;;4803556;29;20504;-44
2023/05/09 02:37:48;;;;;;;3.97;2.38;;;20.20;1.00;;;;;;4801618;29;20129;-44
2023/05/09 02:40:15;;;;;;;5.85;2.78;;;20.30;1.00;;;;;;4804602;29;20054;-45
2023/05/09 02:42:42;;;;;;;5.57;2.70;;;20.20;1.00;;;;;;4803498;29;20050;-44
2023/05/09 02:45:10;;;;;;;4.75;2.42;;;20.20;1.00;;;;;;4803188;29;20059;-44
2023/05/09 02:47:37;;;;;;;3.97;2.92;;;20.20;1.00;;;;;;4804495;29;20050;-44
2023/05/09 02:50:05;;;;;;;4.53;2.33;;;20.20;1.00;;;;;;4818510;29;20046;-45
2023/05/09 02:52:34;;;;;;;5.55;3.30;;;20.20;1.00;;;;;;4803266;29;20073;-50
2023/05/09 02:55:02;;;;;;;6.93;3.63;;;20.20;1.00;;;;;;4803137;29;20066;-46
2023/05/09 02:57:30;;;;;;;6.57;3.08;;;20.20;1.00;;;;;;4818489;29;20054;-44
2023/05/09 02:59:57;;;;;;;6.20;2.90;;;20.20;1.00;;;;;;4803357;29;20047;-45
2023/05/09 03:02:24;;;;;;;6.07;3.55;;;20.20;1.00;;;;;;4803043;29;20082;-48
2023/05/09 03:04:51;;;;;;;6.65;3.78;;;20.20;1.00;;;;;;4797091;29;20047;-46
2023/05/09 03:07:18;;;;;;;8.82;3.28;;;20.20;1.00;;;;;;4797273;29;20116;-44
2023/05/09 03:09:45;;;;;;;6.05;3.05;;;20.20;1.00;;;;;;4801213;29;20142;-45
2023/05/09 03:12:12;;;;;;;5.25;2.95;;;20.20;1.00;;;;;;4803013;29;20051;-47
2023/05/09 03:14:39;;;;;;;6.88;3.03;;;20.20;1.00;;;;;;4802894;29;20091;-45
2023/05/09 03:17:06;;;;;;;5.85;3.40;;;20.20;1.00;;;;;;4804405;29;20062;-45
2023/05/09 03:19:34;;;;;;;7.22;3.42;;;20.20;1.00;;;;;;4806542;29;20575;-44
2023/05/09 03:22:01;;;;;;;5.18;3.20;;;20.20;1.00;;;;;;4804244;29;20046;-44
2023/05/09 03:24:31;;;;;;;5.78;4.00;;;20.10;1.00;;;;;;4806257;29;20066;-45
2023/05/09 03:26:58;;;;;;;6.82;3.38;;;20.10;1.00;;;;;;4806402;29;20525;-47
2023/05/09 03:29:25;;;;;;;7.22;3.38;;;20.10;1.00;;;;;;4807639;29;20047;-44
2023/05/09 03:31:53;;;;;;;6.38;2.97;;;20.10;1.00;;;;;;4807658;29;20065;-48
2023/05/09 03:34:19;;;;;;;5.32;3.30;;;20.10;1.00;;;;;;4805584;29;20061;-44
2023/05/09 03:36:46;;;;;;;6.50;3.45;;;20.10;1.00;;;;;;4803459;29;20048;-45
2023/05/09 03:39:14;;;;;;;5.32;3.15;;;20.10;1.00;;;;;;4797524;29;20124;-43
2023/05/09 03:41:44;;;;;;;8.75;4.25;;;20.10;1.00;;;;;;4799024;29;20050;-43
2023/05/09 03:44:11;;;;;;;7.80;4.15;;;20.10;1.00;;;;;;4802577;29;20047;-45
2023/05/09 03:46:38;;;;;;;6.80;3.63;;;20.10;1.00;;;;;;4820907;29;20093;-43
2023/05/09 03:49:05;;;;;;;6.40;3.95;;;20.10;1.00;;;;;;4805891;29;20050;-44
2023/05/09 03:51:33;;;;;;;11.07;4.22;;;20.10;1.00;;;;;;4803412;29;20057;-43
2023/05/09 03:54:02;;;;;;;6.60;3.60;;;20.10;1.00;;;;;;4800940;29;20089;-43
2023/05/09 03:56:29;;;;;;;6.18;3.38;;;20.10;1.00;;;;;;4805700;29;20050;-44
2023/05/09 03:58:56;;;;;;;7.50;4.38;;;20.10;1.00;;;;;;4820892;29;20055;-45
2023/05/09 04:01:24;;;;;;;6.25;4.15;;;20.10;1.00;;;;;;4805779;29;20408;-45
2023/05/09 04:03:52;;;;;;;7.40;3.40;;;20.10;1.00;;;;;;4805655;29;20039;-45
2023/05/09 04:06:20;;;;;;;7.40;3.97;;;20.10;1.00;;;;;;4856641;23;20175;-45
2023/05/09 04:08:47;;;;;;;7.15;4.20;;;20.00;1.00;;;;;;4823161;29;20049;-43
2023/05/09 04:11:14;;;;;;;10.80;3.53;;;20.00;1.00;;;;;;4817521;29;20043;-43
2023/05/09 04:13:44;;;;;;;9.35;4.32;;;20.10;1.00;;;;;;4822664;29;20046;-44
2023/05/09 04:16:25;;;;;;;12.85;5.72;;;20.10;1.00;;;;;;4821290;29;20050;-45
2023/05/09 04:18:52;;;;;;;8.27;5.07;;;20.00;1.00;;;;;;4823632;29;20050;-46
2023/05/09 04:21:19;;;;;;;9.00;4.82;;;20.00;1.00;;;;;;4808729;29;20057;-46
2023/05/09 04:23:49;;;;;;;7.70;4.10;;;20.00;1.00;;;;;;4815804;29;20047;-43
2023/05/09 04:26:21;;;;;;;9.43;4.78;;;20.00;1.00;;;;;;4822508;29;20047;-43
2023/05/09 04:28:51;;;;;;;7.57;4.57;;;20.00;1.00;;;;;;4822537;29;20054;-43
2023/05/09 04:31:18;;;;;;;7.75;4.93;;;20.00;1.00;;;;;;4823534;29;20452;-44
2023/05/09 04:33:48;;;;;;;9.55;4.50;;;20.00;1.00;;;;;;4823022;29;20534;-47
2023/05/09 04:36:15;;;;;;;7.30;4.10;;;20.00;1.00;;;;;;4823568;29;20050;-43
2023/05/09 04:38:43;;;;;;;8.57;3.92;;;20.00;1.00;;;;;;4823235;29;20046;-44
2023/05/09 04:41:13;;;;;;;9.07;5.25;;;20.00;1.00;;;;;;4822143;29;20088;-43
2023/05/09 04:43:41;;;;;;;7.15;4.00;;;20.00;1.00;;;;;;4823046;29;20055;-45
2023/05/09 04:46:08;;;;;;;8.82;4.18;;;20.00;1.00;;;;;;4823032;29;20046;-44
2023/05/09 04:48:35;;;;;;;5.70;3.80;;;20.00;1.00;;;;;;4814320;29;20078;-44
2023/05/09 04:51:02;;;;;;;11.10;4.80;;;20.00;1.00;;;;;;4810923;29;20462;-44
2023/05/09 04:53:29;;;;;;;6.95;4.57;;;20.00;1.00;;;;;;4820020;29;20499;-44
2023/05/09 04:55:56;;;;;;;13.52;6.70;;;20.00;1.00;;;;;;4810207;29;20102;-44
2023/05/09 04:58:24;;;;;;;9.23;5.45;;;20.00;1.00;;;;;;4807158;29;20107;-44
2023/05/09 05:00:52;;;;;;;9.48;5.38;;;20.00;1.00;;;;;;4825032;29;20046;-45
2023/05/09 05:03:18;;;;;;;13.23;5.38;;;20.00;1.00;;;;;;4805816;29;20043;-43
2023/05/09 05:05:45;;;;;;;9.13;5.32;;;20.00;1.00;;;;;;4811375;29;20047;-44
2023/05/09 05:08:12;;;;;;;9.30;4.93;;;20.00;1.00;;;;;;4808757;29;20057;-44
2023/05/09 05:10:41;;;;;;;12.82;5.97;;;20.00;1.00;;;;;;4809243;29;20055;-44
2023/05/09 05:13:10;;;;;;;8.98;5.30;;;20.00;1.00;;;;;;4806826;29;20051;-43
2023/05/09 05:15:41;;;;;;;14.75;5.32;;;20.00;1.00;;;;;;4803807;29;20487;-44
2023/05/09 05:18:09;;;;;;;11.50;5.22;;;20.00;1.00;;;;;;4798904;29;20075;-43
2023/05/09 05:20:38;;;;;;;11.13;5.53;;;20.00;1.00;;;;;;4811246;29;20038;-45
2023/05/09 05:23:05;;;;;;;8.07;4.30;;;20.00;1.00;;;;;;4804388;29;20054;-44
2023/05/09 05:25:32;;;;;;;10.48;5.53;;;20.00;1.00;;;;;;4812143;29;20057;-43
2023/05/09 05:28:00;;;;;;;8.57;4.32;;;20.10;1.00;;;;;;4828932;29;20081;-45
2023/05/09 05:30:26;;;;;;;11.85;5.35;;;20.10;1.00;;;;;;4814292;29;20102;-44
2023/05/09 05:32:53;;;;;;;10.85;4.38;;;20.00;1.00;;;;;;4809691;29;20142;-43
2023/05/09 05:35:22;;;;;;;7.35;4.47;;;20.00;1.00;;;;;;4814193;29;20074;-43
2023/05/09 05:37:49;;;;;;;12.23;4.82;;;20.00;1.00;;;;;;4900816;23;20107;-43
2023/05/09 05:40:16;;;;;;;11.15;5.55;;;20.10;1.00;;;;;;4799792;29;20078;-43
2023/05/09 05:42:46;;;;;;;7.15;4.50;;;20.10;1.00;;;;;;4824327;29;20103;-44
2023/05/09 05:45:13;;;;;;;7.00;4.93;;;20.10;1.00;;;;;;4808851;29;20476;-43
2023/05/09 05:47:45;;;;;;;12.75;5.70;;;20.10;1.00;;;;;;4803704;29;20059;-44
2023/05/09 05:50:13;;;;;;;8.18;4.90;;;20.00;1.00;;;;;;4803023;29;20074;-44
2023/05/09 05:52:40;;;;;;;8.93;5.38;;;20.10;1.00;;;;;;4803833;29;20074;-47
2023/05/09 05:55:11;;;;;;;8.65;4.30;;;20.00;1.00;;;;;;4823181;29;20043;-46
2023/05/09 05:57:39;;;;;;;8.77;5.07;;;20.00;1.00;;;;;;4809691;29;20054;-44
2023/05/09 06:00:10;;;;;;;9.50;4.88;;;20.10;1.00;;;;;;4805945;29;20039;-46
2023/05/09 06:02:43;;;;;;;7.40;4.22;;;20.10;1.00;;;;;;4813858;29;20061;-47
2023/05/09 06:05:18;;;;;;;9.48;5.47;;;20.00;1.00;;;;;;4804700;29;20137;-47
2023/05/09 06:10:37;;;;;;;10.25;5.43;;;20.10;1.00;;;;;;4785878;29;20135;-43
2023/05/09 06:13:04;;;;;;;21.85;5.47;;;20.00;1.00;;;;;;4783519;29;20043;-43
2023/05/09 06:15:31;;;;;;;7.18;4.32;;;20.00;1.00;;;;;;4785073;29;20047;-43
2023/05/09 06:17:58;;;;;;;7.93;5.05;;;20.00;1.00;;;;;;4789293;29;20130;-45
2023/05/09 06:20:26;;;;;;;12.65;5.65;;;20.00;1.00;;;;;;4782358;30;20051;-46
2023/05/09 06:22:53;;;;;;;10.05;5.60;;;20.10;1.00;;;;;;4800521;29;20058;-45
2023/05/09 06:25:20;;;;;;;6.22;4.25;;;20.00;1.00;;;;;;4797588;29;20062;-44
2023/05/09 06:27:47;;;;;;;7.45;4.22;;;20.00;1.00;;;;;;4786191;30;20055;-43
2023/05/09 06:30:14;;;;;;;7.93;4.30;;;20.00;1.00;;;;;;4786470;29;20071;-43
2023/05/09 06:32:53;;;;;;;9.38;4.78;;;20.00;1.00;;;;;;4786589;29;20043;-45
2023/05/09 06:35:20;;;;;;;8.27;4.28;;;20.00;1.00;;;;;;4779594;29;20052;-44
2023/05/09 06:37:47;;;;;;;7.10;4.90;;;20.00;1.00;;;;;;4775989;30;20052;-44
2023/05/09 06:40:15;;;;;;;6.68;4.53;;;20.00;1.00;;;;;;4771337;30;20039;-43
2023/05/09 06:42:43;;;;;;;7.25;4.55;;;20.00;1.00;;;;;;4769973;30;20053;-44
2023/05/09 06:45:10;;;;;;;6.22;4.25;;;20.00;1.00;;;;;;4773621;29;20070;-44
2023/05/09 06:47:37;;;;;;;7.53;4.72;;;20.00;1.00;;;;;;4784540;30;20117;-44
2023/05/09 06:50:04;;;;;;;7.22;4.05;;;20.00;1.00;;;;;;4780111;29;20123;-46
2023/05/09 06:52:31;;;;;;;8.05;4.10;;;20.00;1.00;;;;;;4795544;29;20048;-44
2023/05/09 06:54:58;;;;;;;6.72;4.45;;;20.00;1.00;;;;;;4779453;30;20504;-44
2023/05/09 06:57:25;;;;;;;5.97;3.95;;;20.00;1.00;;;;;;4772011;30;20545;-45
2023/05/09 06:59:52;;;;;;;6.38;3.75;;;20.00;1.00;;;;;;4782099;30;20131;-46
2023/05/09 07:02:18;;;;;;;5.40;3.53;;;19.90;1.00;;;;;;4783602;30;20043;-42
2023/05/09 07:04:45;;;;;;;7.05;4.05;;;20.00;1.00;;;;;;4776323;29;20039;-43
2023/05/09 07:07:12;;;;;;;4.55;3.25;;;20.00;1.00;;;;;;4779087;30;20044;-43
2023/05/09 07:09:39;;;;;;;6.30;4.28;;;20.00;1.00;;;;;;4786488;30;20053;-44
2023/05/09 07:12:06;;;;;;;6.47;3.70;;;20.00;1.00;;;;;;4862459;23;20057;-44
2023/05/09 07:14:33;;;;;;;6.47;3.95;;;20.00;1.00;;;;;;4829450;29;20365;-44
2023/05/09 07:17:00;;;;;;;5.82;3.25;;;20.00;1.00;;;;;;4817338;29;20039;-44
2023/05/09 07:19:46;;;;;;;5.57;3.60;;;20.00;1.00;;;;;;4823769;29;20043;-45
2023/05/09 07:22:13;;;;;;;5.93;3.90;;;20.00;1.00;;;;;;4818259;29;20034;-45
2023/05/09 07:24:40;;;;;;;6.00;4.18;;;20.00;1.00;;;;;;4821624;29;20048;-45
2023/05/09 07:27:06;;;;;;;7.78;4.55;;;20.00;1.00;;;;;;4817391;29;20103;-45
2023/05/09 07:29:33;;;;;;;5.57;3.40;;;20.00;1.00;;;;;;4820812;29;20046;-44
2023/05/09 07:32:00;;;;;;;4.82;3.13;;;20.00;1.00;;;;;;4825687;29;20556;-45
2023/05/09 07:34:27;;;;;;;4.45;3.20;;;20.00;1.00;;;;;;4818698;29;20457;-44
2023/05/09 07:36:54;;;;;;;6.68;3.53;;;20.00;1.00;;;;;;4825146;29;20140;-44
2023/05/09 07:39:20;;;;;;;5.40;3.60;;;20.00;1.00;;;;;;4825393;29;20042;-44
2023/05/09 07:41:47;;;;;;;6.40;4.10;;;20.00;1.00;;;;;;4843137;24;20096;-44
2023/05/09 07:44:14;;;;;;;7.22;3.30;;;19.90;1.00;;;;;;4832669;29;20062;-44
2023/05/09 07:46:41;;;;;;;5.00;3.08;;;20.00;1.00;;;;;;4834726;29;20084;-45
2023/05/09 07:49:08;;;;;;;4.80;3.47;;;19.90;1.00;;;;;;4843700;29;20042;-44
2023/05/09 07:51:35;;;;;;;6.78;3.92;;;20.00;1.00;;;;;;4838215;29;20049;-45
2023/05/09 07:54:02;;;;;;;6.95;3.90;;;20.00;1.00;;;;;;4832728;29;20034;-44
2023/05/09 07:56:29;;;;;;;8.25;3.75;;;20.00;1.00;;;;;;4840035;29;20515;-43
2023/05/09 07:58:56;;;;;;;6.38;3.20;;;19.90;1.00;;;;;;4835648;29;20042;-44
2023/05/09 08:01:22;;;;;;;5.10;3.20;;;20.00;1.00;;;;;;4843564;29;20125;-45
2023/05/09 08:03:49;;;;;;;6.50;3.55;;;19.90;1.00;;;;;;4842392;29;20130;-45
2023/05/09 08:06:16;;;;;;;7.75;3.85;;;20.00;1.00;;;;;;4843110;29;20088;-44
2023/05/09 08:08:43;;;;;;;7.00;3.20;;;20.00;1.00;;;;;;4841549;29;20503;-44
2023/05/09 08:11:10;;;;;;;6.88;3.83;;;19.90;1.00;;;;;;4843494;29;20670;-44
2023/05/09 08:13:36;;;;;;;7.28;3.03;;;20.00;1.00;;;;;;5344430;23;20066;-43
2023/05/09 08:16:04;;;;;;;5.88;3.53;;;20.00;1.00;;;;;;4814552;29;20078;-43
2023/05/09 08:18:31;;;;;;;4.35;3.22;;;20.00;1.00;;;;;;4823358;29;20399;-44
2023/05/09 08:20:58;;;;;;;9.95;3.13;;;19.90;1.00;;;;;;4817187;29;20079;-43
2023/05/09 08:23:25;;;;;;;6.68;3.17;;;19.90;1.00;;;;;;4817364;29;20065;-44
2023/05/09 08:25:53;;;;;;;5.72;2.53;;;20.00;1.00;;;;;;4817575;29;20544;-43
2023/05/09 08:28:23;;;;;;;6.40;2.95;;;19.90;1.00;;;;;;4819854;29;20436;-43
2023/05/09 08:30:50;;;;;;;5.00;3.55;;;19.90;1.00;;;;;;4821200;29;20046;-43
2023/05/09 08:33:17;;;;;;;10.98;3.13;;;20.00;1.00;;;;;;4822302;29;20133;-45
2023/05/09 08:35:45;;;;;;;5.53;3.03;;;20.00;1.00;;;;;;4824461;29;20054;-45
2023/05/09 08:38:11;;;;;;;4.03;2.55;;;19.90;1.00;;;;;;4824952;29;20474;-44
2023/05/09 08:40:40;;;;;;;3.33;2.55;;;19.90;1.00;;;;;;4824593;29;20415;-44
2023/05/09 08:43:07;;;;;;;6.95;3.28;;;19.90;1.00;;;;;;4817216;29;20092;-45
2023/05/09 08:45:38;;;;;;;6.45;2.92;;;19.90;1.00;;;;;;4886912;23;20082;-45
2023/05/09 08:48:05;;;;;;;6.65;3.08;;;19.90;1.00;;;;;;4832735;29;20487;-46
2023/05/09 08:50:34;;;;;;;4.55;2.70;;;19.90;1.00;;;;;;4838755;29;20090;-45
2023/05/09 08:53:01;;;;;;;4.78;2.92;;;19.90;1.00;;;;;;4828107;29;20038;-45
2023/05/09 08:55:28;;;;;;;3.60;2.40;;;19.90;1.00;;;;;;4832915;29;20110;-44
2023/05/09 08:57:56;;;;;;;4.90;2.95;;;19.90;1.00;;;;;;4842685;29;20054;-45
2023/05/09 09:00:25;;;;;;;5.38;2.50;;;19.90;1.00;;;;;;4842730;29;20090;-44
2023/05/09 09:02:52;;;;;;;5.60;3.05;;;19.90;1.00;;;;;;4837144;29;20050;-44
2023/05/09 09:05:21;;;;;;;3.05;2.42;;;19.90;1.00;;;;;;4836456;29;20052;-45
2023/05/09 09:08:07;;;;;;;4.10;3.08;;;19.90;1.00;;;;;;4837313;29;20045;-44
2023/05/09 09:10:34;;;;;;;4.43;2.53;;;19.90;1.00;;;;;;4834830;29;20052;-45
2023/05/09 09:13:03;;;;;;;4.28;2.40;;;19.90;1.00;;;;;;4842253;29;20105;-44
2023/05/09 09:18:29;;;;;;;4.45;2.58;;;19.90;1.00;;;;;;4809520;29;20055;-43
2023/05/09 09:21:01;;;;;;;3.10;2.15;;;19.90;1.00;;;;;;4820417;29;20103;-44
2023/05/09 09:23:30;;;;;;;3.73;2.53;;;19.90;1.00;;;;;;4816675;29;20073;-44
2023/05/09 09:26:03;;;;;;;8.38;3.25;;;19.90;1.00;;;;;;4822335;29;20281;-44
2023/05/09 09:28:30;;;;;;;3.90;2.55;;;19.90;1.00;;;;;;4824241;29;20130;-43
2023/05/09 09:30:57;;;;;;;4.72;2.45;;;19.90;1.00;;;;;;4816284;29;20054;-43
2023/05/09 09:33:25;;;;;;;4.47;2.38;;;19.90;1.00;;;;;;4820664;29;20053;-43
2023/05/09 09:35:54;;;;;;;4.78;3.13;;;19.90;1.00;;;;;;4822417;29;20514;-44
2023/05/09 09:38:22;;;;;;;6.65;2.50;;;19.90;1.00;;;;;;4824263;29;20039;-43
2023/05/09 09:40:54;;;;;;;5.57;2.95;;;19.90;1.00;;;;;;4823647;29;20039;-43
2023/05/09 09:43:31;;;;;;;5.03;2.35;;;19.90;1.00;;;;;;4824052;29;20042;-43
2023/05/09 09:46:02;;;;;;;5.85;2.53;;;19.90;1.00;;;;;;4823721;29;20038;-43
2023/05/09 09:48:33;;;;;;;3.63;2.30;;;19.90;1.00;;;;;;4817564;29;20100;-43
2023/05/09 09:51:11;;;;;;;2.80;2.17;;;19.90;1.00;;;;;;4814579;29;20551;-44
2023/05/09 09:53:39;;;;;;;3.17;2.20;;;19.90;1.00;;;;;;4820442;29;20042;-44
2023/05/09 09:56:07;;;;;;;5.05;2.33;;;19.90;1.00;;;;;;4823532;29;20038;-43
2023/05/09 09:58:34;;;;;;;4.97;2.15;;;19.90;1.00;;;;;;4822712;29;20046;-44
2023/05/09 10:01:19;;;;;;;3.25;2.03;;;19.90;1.00;;;;;;4813194;29;20396;-48
2023/05/09 10:03:46;;;;;;;4.75;2.25;;;19.90;1.00;;;;;;4814256;29;20410;-47
2023/05/09 10:06:15;;;;;;;3.88;3.42;;;19.90;1.00;;;;;;4818810;29;20120;-46
2023/05/09 10:08:47;;;;;;;3.13;2.35;;;19.90;1.00;;;;;;4823377;29;20499;-46
2023/05/09 10:11:14;;;;;;;4.60;2.13;;;19.90;1.00;;;;;;4823647;29;20038;-46
2023/05/09 10:13:42;;;;;;;3.90;2.20;;;19.90;1.00;;;;;;4823290;29;20103;-44
2023/05/09 10:16:10;;;;;;;2.92;2.20;;;19.90;1.00;;;;;;4823309;29;20475;-45
2023/05/09 10:18:40;;;;;;;4.38;2.17;;;19.90;1.00;;;;;;4808061;29;20079;-45
2023/05/09 10:21:13;;;;;;;3.28;2.25;;;19.90;1.00;;;;;;4795386;29;20548;-44
2023/05/09 10:23:44;;;;;;;4.70;2.22;;;19.90;1.00;;;;;;4793092;29;20108;-47
2023/05/09 10:26:14;;;;;;;4.35;2.88;;;19.90;1.00;;;;;;4801945;29;20506;-45
2023/05/09 10:28:43;;;;;;;4.60;2.20;;;19.90;1.00;;;;;;4800404;29;20077;-46
2023/05/09 10:31:20;;;;;;;3.65;2.28;;;19.90;1.00;;;;;;4805873;29;20475;-43
2023/05/09 10:33:49;;;;;;;3.05;2.00;;;19.90;1.00;;;;;;4810161;29;20035;-46
2023/05/09 10:36:25;;;;;;;6.82;2.42;;;19.90;1.00;;;;;;4816522;29;20053;-45
2023/05/09 10:38:53;;;;;;;2.70;1.52;;;19.90;1.00;;;;;;4814672;29;20125;-45
2023/05/09 10:41:21;;;;;;;2.35;1.65;;;20.00;1.00;;;;;;4822990;29;20050;-44
2023/05/09 10:43:48;;;;;;;2.10;1.35;;;19.90;1.00;;;;;;4823232;29;20441;-44
2023/05/09 10:46:16;;;;;;;3.13;2.17;;;19.90;1.00;;;;;;4815474;29;20074;-45
2023/05/09 10:48:44;;;;;;;2.40;1.55;;;19.90;1.00;;;;;;4809809;29;20112;-43
2023/05/09 10:51:12;;;;;;;4.88;2.05;;;19.90;1.00;;;;;;4884726;24;20106;-44
2023/05/09 10:53:47;;;;;;;2.80;1.73;;;20.00;1.00;;;;;;4830909;29;20104;-42
2023/05/09 10:56:31;;;;;;;5.00;2.13;;;19.90;1.00;;;;;;4825098;29;20106;-47
2023/05/09 10:58:59;;;;;;;3.50;1.80;;;19.90;1.00;;;;;;4832872;29;20510;-47
2023/05/09 11:01:29;;;;;;;3.42;1.90;;;19.90;1.00;;;;;;4816986;29;20046;-45
2023/05/09 11:03:57;;;;;;;6.03;1.98;;;19.90;1.00;;;;;;4823291;29;20054;-44
2023/05/09 11:06:45;;;;;;;3.58;1.92;;;19.90;1.00;;;;;;4825976;29;20422;-45
2023/05/09 11:09:27;;;;;;;5.85;2.40;;;19.90;1.00;;;;;;4828604;29;20050;-44
2023/05/09 11:12:03;;;;;;;3.00;1.45;;;19.90;1.00;;;;;;4823234;29;20051;-43
2023/05/09 11:14:42;;;;;;;2.88;1.75;;;19.90;1.00;;;;;;4833229;29;20545;-45
2023/05/09 11:17:21;;;;;;;5.13;1.70;;;19.90;1.00;;;;;;4836200;29;20042;-46
2023/05/09 11:19:52;;;;;;;5.45;1.95;;;19.90;1.00;;;;;;4936065;23;20037;31
2023/05/09 11:22:25;;;;;;;3.13;1.65;;;19.90;1.00;;;;;;4801654;29;20050;-43
2023/05/09 11:24:59;;;;;;;3.40;2.53;;;19.90;1.00;;;;;;4794707;29;20056;-44
2023/05/09 11:27:27;;;;;;;3.03;1.83;;;19.90;1.00;;;;;;4788753;29;20104;-42
2023/05/09 11:29:58;;;;;;;4.00;2.00;;;19.90;1.00;;;;;;4798634;29;20050;-43
2023/05/09 11:32:29;;;;;;;3.00;1.70;;;20.00;1.00;;;;;;4780251;30;20043;-43
2023/05/09 11:35:10;;;;;;;2.88;1.83;;;20.00;1.00;;;;;;4789456;29;20573;-44
2023/05/09 11:37:49;;;;;;;2.15;1.55;;;20.00;1.00;;;;;;4786624;29;20051;-44
2023/05/09 11:40:18;;;;;;;2.78;1.38;;;19.90;1.00;;;;;;4789409;29;20051;-43
2023/05/09 11:42:52;;;;;;;2.33;1.70;;;19.90;1.00;;;;;;4787261;30;20039;-43
2023/05/09 11:45:26;;;;;;;2.55;1.67;;;20.00;1.00;;;;;;4789341;29;20134;-44
2023/05/09 11:47:53;;;;;;;2.63;1.45;;;19.90;1.00;;;;;;4790796;29;20050;-45
2023/05/09 11:53:23;;;;;;;4.97;1.92;;;20.00;1.00;;;;;;4844247;24;20055;-44
2023/05/09 11:55:50;;;;;;;3.25;1.67;;;20.00;1.00;;;;;;4805803;29;20043;-43
2023/05/09 11:58:17;;;;;;;3.03;1.60;;;19.90;1.00;;;;;;4811990;29;20061;-45
2023/05/09 12:00:44;;;;;;;2.95;1.83;;;20.00;1.00;;;;;;4812512;29;20078;-44
2023/05/09 12:03:11;;;;;;;3.10;1.35;;;20.00;1.00;;;;;;4810482;29;20043;-45
2023/05/09 12:05:38;;;;;;;2.33;1.63;;;20.00;1.00;;;;;;4806840;29;20392;-44
2023/05/09 12:08:05;;;;;;;2.47;1.88;;;20.00;1.00;;;;;;4810769;29;20054;-44
2023/05/09 12:10:36;;;;;;;4.25;1.63;;;19.90;1.00;;;;;;4819789;29;20042;-45
2023/05/09 12:13:03;;;;;;;2.85;1.40;;;19.90;1.00;;;;;;4824803;29;20057;-44
2023/05/09 12:15:36;;;;;;;1.85;1.13;;;19.90;1.00;;;;;;4824549;29;20081;-44
2023/05/09 12:18:06;;;;;;;3.08;1.40;;;19.90;1.00;;;;;;4824934;29;20487;-44
2023/05/09 12:20:45;;;;;;;2.08;1.10;;;19.90;1.00;;;;;;4818754;29;20496;-44
2023/05/09 12:23:16;;;;;;;2.10;1.50;;;20.00;1.00;;;;;;4934866;23;20027;31
2023/05/09 12:25:48;;;;;;;2.20;1.30;;;20.00;1.00;;;;;;4792131;29;20607;-43
2023/05/09 12:28:15;;;;;;;1.42;0.90;;;20.00;1.00;;;;;;4788589;29;20061;-46
2023/05/09 12:30:43;;;;;;;2.00;1.08;;;20.00;1.00;;;;;;4786876;29;20055;-44
2023/05/09 12:33:11;;;;;;;2.40;1.50;;;20.00;1.00;;;;;;4796112;29;20051;-43
2023/05/09 12:35:39;;;;;;;2.65;1.25;;;19.90;1.00;;;;;;4802399;29;20062;-46
2023/05/09 12:38:05;;;;;;;2.70;1.38;;;19.90;1.00;;;;;;4801047;29;20067;-44
2023/05/09 12:40:32;;;;;;;4.40;2.03;;;20.00;1.00;;;;;;4793062;29;20056;-45
2023/05/09 12:43:01;;;;;;;3.15;1.00;;;20.00;1.00;;;;;;4787458;29;20039;-44
2023/05/09 12:45:31;;;;;;;3.78;1.35;;;19.90;1.00;;;;;;4786991;29;20164;-45
2023/05/09 12:48:01;;;;;;;2.58;1.10;;;19.90;1.00;;;;;;4792143;29;20052;-44
2023/05/09 12:50:35;;;;;;;3.75;1.08;;;19.90;1.00;;;;;;4792317;29;20089;-43
2023/05/09 12:53:03;;;;;;;4.40;1.02;;;20.00;1.00;;;;;;4787023;29;20044;-43
2023/05/09 12:55:31;;;;;;;3.97;1.60;;;20.00;1.00;;;;;;4784409;29;20454;-44
2023/05/09 12:58:02;;;;;;;2.08;1.17;;;20.00;1.00;;;;;;4800105;29;20134;-44
2023/05/09 13:00:44;;;;;;;1.88;1.30;;;20.00;1.00;;;;;;4804300;29;20043;-43
2023/05/09 13:03:24;;;;;;;7.82;1.83;;;20.00;1.00;;;;;;4803055;29;20118;-43
2023/05/09 13:05:58;;;;;;;3.80;2.00;;;20.00;1.00;;;;;;4803066;29;20510;-43
2023/05/09 13:08:27;;;;;;;3.97;1.40;;;19.90;1.00;;;;;;4806029;29;20528;-44
2023/05/09 13:10:54;;;;;;;2.95;1.42;;;20.00;1.00;;;;;;4804956;29;20465;-43
2023/05/09 13:13:34;;;;;;;3.78;1.50;;;20.00;1.00;;;;;;4801115;29;20344;-43
2023/05/09 13:16:03;;;;;;;4.50;1.50;;;19.90;1.00;;;;;;4805539;29;20047;-45